sensor_id;sensor_type;location;lat;lon;timestamp;temperature;humidity
51733;DHT22;39139;53.144;6.244;2023-04-01T00:00:56;9.90;99.90
51733;DHT22;39139;53.144;6.244;2023-04-01T00:03:23;9.60;99.90
51733;DHT22;39139;53.144;6.244;2023-04-01T00:05:49;9.60;99.90
51733;DHT22;39139;53.144;6.244;2023-04-01T00:08:15;9.80;99.90
51733;DHT22;39139;53.144;6.244;2023-04-01T00:10:41;9.70;99.90
51733;DHT22;39139;53.144;6.244;2023-04-01T00:13:07;9.60;99.90
51733;DHT22;39139;53.144;6.244;2023-04-01T00:15:33;9.70;99.90
51733;DHT22;39139;53.144;6.244;2023-04-01T00:17:59;9.70;99.90
51733;DHT22;39139;53.144;6.244;2023-04-01T00:20:25;9.70;99.90
51733;DHT22;39139;53.144;6.244;2023-04-01T00:22:50;9.60;99.90
51733;DHT22;39139;53.144;6.244;2023-04-01T00:25:16;9.80;99.90
51733;DHT22;39139;53.144;6.244;2023-04-01T00:27:42;9.60;99.90
51733;DHT22;39139;53.144;6.244;2023-04-01T00:30:08;9.70;99.90
51733;DHT22;39139;53.144;6.244;2023-04-01T00:32:34;9.70;99.90
51733;DHT22;39139;53.144;6.244;2023-04-01T00:35:00;9.80;99.90
51733;DHT22;39139;53.144;6.244;2023-04-01T00:37:27;9.80;99.90
51733;DHT22;39139;53.144;6.244;2023-04-01T00:39:53;9.80;99.90
51733;DHT22;39139;53.144;6.244;2023-04-01T00:42:18;9.80;99.90
51733;DHT22;39139;53.144;6.244;2023-04-01T00:44:54;9.70;99.90
51733;DHT22;39139;53.144;6.244;2023-04-01T00:47:21;9.80;99.90
51733;DHT22;39139;53.144;6.244;2023-04-01T00:49:51;9.80;99.90
51733;DHT22;39139;53.144;6.244;2023-04-01T00:52:20;10.60;99.90
51733;DHT22;39139;53.144;6.244;2023-04-01T00:54:50;9.80;99.90
51733;DHT22;39139;53.144;6.244;2023-04-01T00:57:27;9.60;99.90
51733;DHT22;39139;53.144;6.244;2023-04-01T00:59:55;9.70;99.90
51733;DHT22;39139;53.144;6.244;2023-04-01T01:02:21;9.60;99.90
51733;DHT22;39139;53.144;6.244;2023-04-01T01:04:47;9.70;99.90
51733;DHT22;39139;53.144;6.244;2023-04-01T01:10:34;9.70;99.90
51733;DHT22;39139;53.144;6.244;2023-04-01T01:15:42;9.80;99.90
51733;DHT22;39139;53.144;6.244;2023-04-01T01:18:17;10.10;99.90
51733;DHT22;39139;53.144;6.244;2023-04-01T01:21:11;9.60;99.90
51733;DHT22;39139;53.144;6.244;2023-04-01T01:24:10;9.70;99.90
51733;DHT22;39139;53.144;6.244;2023-04-01T01:26:57;9.80;99.90
51733;DHT22;39139;53.144;6.244;2023-04-01T01:35:22;10.70;99.90
51733;DHT22;39139;53.144;6.244;2023-04-01T01:37:53;9.60;99.90
51733;DHT22;39139;53.144;6.244;2023-04-01T01:40:20;10.60;99.90
51733;DHT22;39139;53.144;6.244;2023-04-01T01:42:50;9.80;99.90
51733;DHT22;39139;53.144;6.244;2023-04-01T01:45:16;9.70;99.90
51733;DHT22;39139;53.144;6.244;2023-04-01T01:47:45;10.10;99.90
51733;DHT22;39139;53.144;6.244;2023-04-01T01:50:12;10.20;99.90
51733;DHT22;39139;53.144;6.244;2023-04-01T01:52:39;9.70;99.90
51733;DHT22;39139;53.144;6.244;2023-04-01T01:55:28;9.70;99.90
51733;DHT22;39139;53.144;6.244;2023-04-01T01:57:58;9.80;99.90
51733;DHT22;39139;53.144;6.244;2023-04-01T02:00:24;9.60;99.90
51733;DHT22;39139;53.144;6.244;2023-04-01T02:02:50;9.80;99.90
51733;DHT22;39139;53.144;6.244;2023-04-01T02:05:20;9.80;99.90
51733;DHT22;39139;53.144;6.244;2023-04-01T02:07:51;9.60;99.90
51733;DHT22;39139;53.144;6.244;2023-04-01T02:10:22;10.40;99.90
51733;DHT22;39139;53.144;6.244;2023-04-01T02:12:51;9.80;99.90
51733;DHT22;39139;53.144;6.244;2023-04-01T02:15:19;9.80;99.90
51733;DHT22;39139;53.144;6.244;2023-04-01T02:17:46;9.80;99.90
51733;DHT22;39139;53.144;6.244;2023-04-01T02:20:16;10.30;99.90
51733;DHT22;39139;53.144;6.244;2023-04-01T02:22:43;9.70;99.90
51733;DHT22;39139;53.144;6.244;2023-04-01T02:25:18;9.70;99.90
51733;DHT22;39139;53.144;6.244;2023-04-01T02:27:44;9.80;99.90
51733;DHT22;39139;53.144;6.244;2023-04-01T02:30:12;9.60;99.90
51733;DHT22;39139;53.144;6.244;2023-04-01T02:32:39;9.80;99.90
51733;DHT22;39139;53.144;6.244;2023-04-01T02:35:07;9.70;99.90
51733;DHT22;39139;53.144;6.244;2023-04-01T02:37:36;9.60;99.90
51733;DHT22;39139;53.144;6.244;2023-04-01T02:40:03;9.80;99.90
51733;DHT22;39139;53.144;6.244;2023-04-01T02:42:31;9.70;99.90
51733;DHT22;39139;53.144;6.244;2023-04-01T02:44:57;9.90;99.90
51733;DHT22;39139;53.144;6.244;2023-04-01T02:47:23;9.80;99.90
51733;DHT22;39139;53.144;6.244;2023-04-01T02:49:48;9.80;99.90
51733;DHT22;39139;53.144;6.244;2023-04-01T02:52:14;9.80;99.90
51733;DHT22;39139;53.144;6.244;2023-04-01T02:54:40;9.80;99.90
51733;DHT22;39139;53.144;6.244;2023-04-01T02:57:06;9.70;99.90
51733;DHT22;39139;53.144;6.244;2023-04-01T02:59:32;9.70;99.90
51733;DHT22;39139;53.144;6.244;2023-04-01T03:01:57;9.70;99.90
51733;DHT22;39139;53.144;6.244;2023-04-01T03:04:23;9.60;99.90
51733;DHT22;39139;53.144;6.244;2023-04-01T03:06:49;9.80;99.90
51733;DHT22;39139;53.144;6.244;2023-04-01T03:09:15;9.60;99.90
51733;DHT22;39139;53.144;6.244;2023-04-01T03:11:41;9.60;99.90
51733;DHT22;39139;53.144;6.244;2023-04-01T03:14:06;9.80;99.90
51733;DHT22;39139;53.144;6.244;2023-04-01T03:16:32;9.60;99.90
51733;DHT22;39139;53.144;6.244;2023-04-01T03:18:58;10.50;99.90
51733;DHT22;39139;53.144;6.244;2023-04-01T03:21:25;9.70;99.90
51733;DHT22;39139;53.144;6.244;2023-04-01T03:23:51;9.60;99.90
51733;DHT22;39139;53.144;6.244;2023-04-01T03:26:17;9.70;99.90
51733;DHT22;39139;53.144;6.244;2023-04-01T03:28:43;10.20;99.90
51733;DHT22;39139;53.144;6.244;2023-04-01T03:31:09;9.70;99.90
51733;DHT22;39139;53.144;6.244;2023-04-01T03:33:35;9.60;99.90
51733;DHT22;39139;53.144;6.244;2023-04-01T03:36:00;9.90;99.90
51733;DHT22;39139;53.144;6.244;2023-04-01T03:38:26;9.60;99.90
51733;DHT22;39139;53.144;6.244;2023-04-01T03:40:52;9.70;99.90
51733;DHT22;39139;53.144;6.244;2023-04-01T03:43:17;9.80;99.90
51733;DHT22;39139;53.144;6.244;2023-04-01T03:45:44;10.00;99.90
51733;DHT22;39139;53.144;6.244;2023-04-01T03:48:10;9.70;99.90
51733;DHT22;39139;53.144;6.244;2023-04-01T03:50:36;9.60;99.90
51733;DHT22;39139;53.144;6.244;2023-04-01T03:53:01;9.60;99.90
51733;DHT22;39139;53.144;6.244;2023-04-01T03:55:27;9.90;99.90
51733;DHT22;39139;53.144;6.244;2023-04-01T03:57:52;9.70;99.90
51733;DHT22;39139;53.144;6.244;2023-04-01T04:00:18;9.70;99.90
51733;DHT22;39139;53.144;6.244;2023-04-01T04:02:44;9.60;99.90
51733;DHT22;39139;53.144;6.244;2023-04-01T04:05:10;9.70;99.90
51733;DHT22;39139;53.144;6.244;2023-04-01T04:07:36;9.80;99.90
51733;DHT22;39139;53.144;6.244;2023-04-01T04:10:02;9.70;99.90
51733;DHT22;39139;53.144;6.244;2023-04-01T04:12:27;9.70;99.90
51733;DHT22;39139;53.144;6.244;2023-04-01T04:14:53;9.60;99.90
51733;DHT22;39139;53.144;6.244;2023-04-01T04:17:18;9.70;99.90
51733;DHT22;39139;53.144;6.244;2023-04-01T04:19:44;9.70;99.90
51733;DHT22;39139;53.144;6.244;2023-04-01T04:22:10;9.70;99.90
51733;DHT22;39139;53.144;6.244;2023-04-01T04:24:36;9.50;99.90
51733;DHT22;39139;53.144;6.244;2023-04-01T04:27:02;9.60;99.90
51733;DHT22;39139;53.144;6.244;2023-04-01T04:29:28;9.50;99.90
51733;DHT22;39139;53.144;6.244;2023-04-01T04:31:54;9.70;99.90
51733;DHT22;39139;53.144;6.244;2023-04-01T04:34:19;9.60;99.90
51733;DHT22;39139;53.144;6.244;2023-04-01T04:36:46;9.50;99.90
51733;DHT22;39139;53.144;6.244;2023-04-01T04:39:12;9.60;99.90
51733;DHT22;39139;53.144;6.244;2023-04-01T04:41:38;9.70;99.90
51733;DHT22;39139;53.144;6.244;2023-04-01T04:44:04;9.60;99.90
51733;DHT22;39139;53.144;6.244;2023-04-01T04:46:30;9.80;99.90
51733;DHT22;39139;53.144;6.244;2023-04-01T04:48:56;9.70;99.90
51733;DHT22;39139;53.144;6.244;2023-04-01T04:51:22;9.60;99.90
51733;DHT22;39139;53.144;6.244;2023-04-01T04:53:48;9.60;99.90
51733;DHT22;39139;53.144;6.244;2023-04-01T04:56:21;9.50;99.90
51733;DHT22;39139;53.144;6.244;2023-04-01T04:58:50;9.50;99.90
51733;DHT22;39139;53.144;6.244;2023-04-01T05:01:17;9.50;99.90
51733;DHT22;39139;53.144;6.244;2023-04-01T05:03:43;10.00;99.90
51733;DHT22;39139;53.144;6.244;2023-04-01T05:06:10;9.60;99.90
51733;DHT22;39139;53.144;6.244;2023-04-01T05:08:37;9.50;99.90
51733;DHT22;39139;53.144;6.244;2023-04-01T05:11:07;9.60;99.90
51733;DHT22;39139;53.144;6.244;2023-04-01T05:13:35;9.50;99.90
51733;DHT22;39139;53.144;6.244;2023-04-01T05:16:01;9.60;99.90
51733;DHT22;39139;53.144;6.244;2023-04-01T05:18:26;9.60;99.90
51733;DHT22;39139;53.144;6.244;2023-04-01T05:20:53;9.60;99.90
51733;DHT22;39139;53.144;6.244;2023-04-01T05:23:20;9.60;99.90
51733;DHT22;39139;53.144;6.244;2023-04-01T05:25:51;9.50;99.90
51733;DHT22;39139;53.144;6.244;2023-04-01T05:28:19;9.50;99.90
51733;DHT22;39139;53.144;6.244;2023-04-01T05:30:45;9.60;99.90
51733;DHT22;39139;53.144;6.244;2023-04-01T05:33:12;9.50;99.90
51733;DHT22;39139;53.144;6.244;2023-04-01T05:35:39;9.60;99.90
51733;DHT22;39139;53.144;6.244;2023-04-01T05:38:05;9.50;99.90
51733;DHT22;39139;53.144;6.244;2023-04-01T05:40:32;9.70;99.90
51733;DHT22;39139;53.144;6.244;2023-04-01T05:43:00;9.70;99.90
51733;DHT22;39139;53.144;6.244;2023-04-01T05:45:26;9.60;99.90
51733;DHT22;39139;53.144;6.244;2023-04-01T05:47:52;10.60;99.90
51733;DHT22;39139;53.144;6.244;2023-04-01T05:50:18;9.60;99.90
51733;DHT22;39139;53.144;6.244;2023-04-01T05:52:44;9.70;99.90
51733;DHT22;39139;53.144;6.244;2023-04-01T05:55:10;9.70;99.90
51733;DHT22;39139;53.144;6.244;2023-04-01T05:57:36;9.80;99.90
51733;DHT22;39139;53.144;6.244;2023-04-01T06:00:03;9.70;99.90
51733;DHT22;39139;53.144;6.244;2023-04-01T06:02:29;9.70;99.90
51733;DHT22;39139;53.144;6.244;2023-04-01T06:07:37;9.60;99.90
51733;DHT22;39139;53.144;6.244;2023-04-01T06:10:17;9.60;99.90
51733;DHT22;39139;53.144;6.244;2023-04-01T06:12:57;9.70;99.90
51733;DHT22;39139;53.144;6.244;2023-04-01T06:15:36;9.90;99.90
51733;DHT22;39139;53.144;6.244;2023-04-01T06:18:42;9.70;99.90
51733;DHT22;39139;53.144;6.244;2023-04-01T06:21:48;9.60;99.90
51733;DHT22;39139;53.144;6.244;2023-04-01T06:27:51;9.70;99.90
51733;DHT22;39139;53.144;6.244;2023-04-01T06:33:09;9.70;99.90
51733;DHT22;39139;53.144;6.244;2023-04-01T06:41:46;9.70;99.90
51733;DHT22;39139;53.144;6.244;2023-04-01T06:46:58;9.90;99.90
51733;DHT22;39139;53.144;6.244;2023-04-01T06:57:57;9.80;99.90
51733;DHT22;39139;53.144;6.244;2023-04-01T07:00:34;9.80;99.90
51733;DHT22;39139;53.144;6.244;2023-04-01T07:05:31;10.30;99.90
51733;DHT22;39139;53.144;6.244;2023-04-01T07:08:00;9.90;99.90
51733;DHT22;39139;53.144;6.244;2023-04-01T07:13:12;9.90;99.90
51733;DHT22;39139;53.144;6.244;2023-04-01T07:15:45;9.90;99.90
51733;DHT22;39139;53.144;6.244;2023-04-01T07:18:18;9.90;99.90
51733;DHT22;39139;53.144;6.244;2023-04-01T07:20:46;9.90;99.90
51733;DHT22;39139;53.144;6.244;2023-04-01T07:23:24;9.90;99.90
51733;DHT22;39139;53.144;6.244;2023-04-01T07:26:01;10.00;99.90
51733;DHT22;39139;53.144;6.244;2023-04-01T07:28:31;10.20;99.90
51733;DHT22;39139;53.144;6.244;2023-04-01T07:31:57;10.20;99.90
51733;DHT22;39139;53.144;6.244;2023-04-01T07:34:09;10.50;99.90
51733;DHT22;39139;53.144;6.244;2023-04-01T07:39:24;10.40;99.90
51733;DHT22;39139;53.144;6.244;2023-04-01T07:44:59;10.40;99.90
51733;DHT22;39139;53.144;6.244;2023-04-01T07:47:49;10.40;99.90
51733;DHT22;39139;53.144;6.244;2023-04-01T07:50:41;10.60;99.90
51733;DHT22;39139;53.144;6.244;2023-04-01T07:56:42;10.50;99.90
51733;DHT22;39139;53.144;6.244;2023-04-01T07:59:20;10.60;99.90
51733;DHT22;39139;53.144;6.244;2023-04-01T08:02:08;10.80;99.90
51733;DHT22;39139;53.144;6.244;2023-04-01T08:07:45;11.00;99.90
51733;DHT22;39139;53.144;6.244;2023-04-01T08:12:48;11.70;99.90
51733;DHT22;39139;53.144;6.244;2023-04-01T08:15:19;11.40;99.90
51733;DHT22;39139;53.144;6.244;2023-04-01T08:17:54;11.50;99.90
51733;DHT22;39139;53.144;6.244;2023-04-01T08:26:13;12.30;99.90
51733;DHT22;39139;53.144;6.244;2023-04-01T08:28:46;10.80;99.90
51733;DHT22;39139;53.144;6.244;2023-04-01T08:31:38;11.30;99.90
51733;DHT22;39139;53.144;6.244;2023-04-01T08:34:15;11.30;99.90
51733;DHT22;39139;53.144;6.244;2023-04-01T08:36:46;11.30;99.90
51733;DHT22;39139;53.144;6.244;2023-04-01T08:39:27;11.10;99.90
51733;DHT22;39139;53.144;6.244;2023-04-01T08:48:11;10.20;99.90
51733;DHT22;39139;53.144;6.244;2023-04-01T08:53:46;11.00;99.90
51733;DHT22;39139;53.144;6.244;2023-04-01T08:56:18;11.00;99.90
51733;DHT22;39139;53.144;6.244;2023-04-01T09:05:03;11.10;99.90
51733;DHT22;39139;53.144;6.244;2023-04-01T09:13:15;11.40;99.90
51733;DHT22;39139;53.144;6.244;2023-04-01T09:16:03;11.40;99.90
51733;DHT22;39139;53.144;6.244;2023-04-01T09:19:08;11.40;99.90
51733;DHT22;39139;53.144;6.244;2023-04-01T09:22:29;11.30;99.90
51733;DHT22;39139;53.144;6.244;2023-04-01T09:25:12;11.30;99.90
51733;DHT22;39139;53.144;6.244;2023-04-01T09:28:02;11.00;99.90
51733;DHT22;39139;53.144;6.244;2023-04-01T09:30:41;11.10;99.90
51733;DHT22;39139;53.144;6.244;2023-04-01T09:36:18;11.00;99.90
51733;DHT22;39139;53.144;6.244;2023-04-01T09:39:18;11.10;99.90
51733;DHT22;39139;53.144;6.244;2023-04-01T09:44:57;11.00;99.90
51733;DHT22;39139;53.144;6.244;2023-04-01T09:50:29;10.90;99.90
51733;DHT22;39139;53.144;6.244;2023-04-01T09:56:04;10.60;99.90
51733;DHT22;39139;53.144;6.244;2023-04-01T10:07:26;10.40;99.90
51733;DHT22;39139;53.144;6.244;2023-04-01T10:13:07;10.40;99.90
51733;DHT22;39139;53.144;6.244;2023-04-01T10:41:37;10.40;99.90
51733;DHT22;39139;53.144;6.244;2023-04-01T10:44:32;10.40;99.90
51733;DHT22;39139;53.144;6.244;2023-04-01T11:01:33;10.40;99.90
51733;DHT22;39139;53.144;6.244;2023-04-01T11:07:11;10.30;99.90
51733;DHT22;39139;53.144;6.244;2023-04-01T11:23:54;10.40;99.90
51733;DHT22;39139;53.144;6.244;2023-04-01T11:35:46;11.20;99.90
51733;DHT22;39139;53.144;6.244;2023-04-01T11:40:45;10.60;99.90
51733;DHT22;39139;53.144;6.244;2023-04-01T11:43:21;10.60;99.90
51733;DHT22;39139;53.144;6.244;2023-04-01T11:46:10;10.50;99.90
51733;DHT22;39139;53.144;6.244;2023-04-01T11:53:52;10.50;99.90
51733;DHT22;39139;53.144;6.244;2023-04-01T11:56:49;10.40;99.90
51733;DHT22;39139;53.144;6.244;2023-04-01T12:02:48;10.40;99.90
51733;DHT22;39139;53.144;6.244;2023-04-01T12:13:40;10.40;99.90
51733;DHT22;39139;53.144;6.244;2023-04-01T12:16:50;10.50;99.90
51733;DHT22;39139;53.144;6.244;2023-04-01T12:31:22;10.40;99.90
51733;DHT22;39139;53.144;6.244;2023-04-01T12:41:51;10.40;99.90
51733;DHT22;39139;53.144;6.244;2023-04-01T12:47:10;10.40;99.90
51733;DHT22;39139;53.144;6.244;2023-04-01T12:57:44;10.40;99.90
51733;DHT22;39139;53.144;6.244;2023-04-01T13:16:38;10.40;99.90
51733;DHT22;39139;53.144;6.244;2023-04-01T13:19:19;10.40;99.90
51733;DHT22;39139;53.144;6.244;2023-04-01T13:22:20;10.40;99.90
51733;DHT22;39139;53.144;6.244;2023-04-01T13:24:59;10.50;99.90
51733;DHT22;39139;53.144;6.244;2023-04-01T13:27:34;10.90;99.90
51733;DHT22;39139;53.144;6.244;2023-04-01T13:32:47;10.40;99.90
51733;DHT22;39139;53.144;6.244;2023-04-01T13:43:42;10.60;99.90
51733;DHT22;39139;53.144;6.244;2023-04-01T13:46:16;10.30;99.90
51733;DHT22;39139;53.144;6.244;2023-04-01T13:48:51;10.30;99.90
51733;DHT22;39139;53.144;6.244;2023-04-01T14:05:14;10.00;99.90
51733;DHT22;39139;53.144;6.244;2023-04-01T14:35:12;10.20;99.90
51733;DHT22;39139;53.144;6.244;2023-04-01T14:38:04;9.80;99.90
51733;DHT22;39139;53.144;6.244;2023-04-01T14:46:08;10.10;99.90
51733;DHT22;39139;53.144;6.244;2023-04-01T14:51:41;9.50;99.90
51733;DHT22;39139;53.144;6.244;2023-04-01T14:54:20;9.60;99.90
51733;DHT22;39139;53.144;6.244;2023-04-01T14:57:05;9.50;99.90
51733;DHT22;39139;53.144;6.244;2023-04-01T14:59:49;9.40;99.90
51733;DHT22;39139;53.144;6.244;2023-04-01T15:02:31;9.50;99.90
51733;DHT22;39139;53.144;6.244;2023-04-01T15:08:09;9.40;99.90
51733;DHT22;39139;53.144;6.244;2023-04-01T15:10:49;9.30;99.90
51733;DHT22;39139;53.144;6.244;2023-04-01T15:27:25;9.10;99.90
51733;DHT22;39139;53.144;6.244;2023-04-01T15:35:33;9.00;99.90
51733;DHT22;39139;53.144;6.244;2023-04-01T15:38:31;8.90;99.90
51733;DHT22;39139;53.144;6.244;2023-04-01T15:41:29;8.90;99.90
51733;DHT22;39139;53.144;6.244;2023-04-01T15:44:01;8.90;99.90
51733;DHT22;39139;53.144;6.244;2023-04-01T15:52:19;8.70;99.90
51733;DHT22;39139;53.144;6.244;2023-04-01T15:57:56;8.60;99.90
51733;DHT22;39139;53.144;6.244;2023-04-01T16:00:30;8.50;99.90
51733;DHT22;39139;53.144;6.244;2023-04-01T16:03:19;8.50;99.90
51733;DHT22;39139;53.144;6.244;2023-04-01T16:11:43;8.40;99.90
51733;DHT22;39139;53.144;6.244;2023-04-01T16:19:52;8.70;99.90
51733;DHT22;39139;53.144;6.244;2023-04-01T16:22:38;8.30;99.90
51733;DHT22;39139;53.144;6.244;2023-04-01T16:25:32;8.30;99.90
51733;DHT22;39139;53.144;6.244;2023-04-01T16:33:57;8.10;99.90
51733;DHT22;39139;53.144;6.244;2023-04-01T16:36:37;8.00;99.90
51733;DHT22;39139;53.144;6.244;2023-04-01T16:44:27;8.00;99.90
51733;DHT22;39139;53.144;6.244;2023-04-01T16:46:59;8.00;99.90
51733;DHT22;39139;53.144;6.244;2023-04-01T16:49:48;8.00;99.90
51733;DHT22;39139;53.144;6.244;2023-04-01T16:58:46;7.80;99.90
51733;DHT22;39139;53.144;6.244;2023-04-01T17:01:24;7.80;99.90
51733;DHT22;39139;53.144;6.244;2023-04-01T17:04:11;7.80;99.90
51733;DHT22;39139;53.144;6.244;2023-04-01T17:09:50;7.70;99.90
51733;DHT22;39139;53.144;6.244;2023-04-01T17:23:13;7.50;99.90
51733;DHT22;39139;53.144;6.244;2023-04-01T17:31:40;7.40;99.90
51733;DHT22;39139;53.144;6.244;2023-04-01T17:34:35;7.40;99.90
51733;DHT22;39139;53.144;6.244;2023-04-01T17:43:12;7.20;99.90
51733;DHT22;39139;53.144;6.244;2023-04-01T17:45:55;7.20;99.90
51733;DHT22;39139;53.144;6.244;2023-04-01T17:58:20;7.20;99.90
51733;DHT22;39139;53.144;6.244;2023-04-01T18:03:29;7.10;99.90
51733;DHT22;39139;53.144;6.244;2023-04-01T18:06:29;7.10;99.90
51733;DHT22;39139;53.144;6.244;2023-04-01T18:22:46;6.90;99.90
51733;DHT22;39139;53.144;6.244;2023-04-01T18:25:30;6.90;99.90
51733;DHT22;39139;53.144;6.244;2023-04-01T18:28:37;6.90;99.90
51733;DHT22;39139;53.144;6.244;2023-04-01T18:33:48;6.90;99.90
51733;DHT22;39139;53.144;6.244;2023-04-01T18:36:39;6.80;99.90
51733;DHT22;39139;53.144;6.244;2023-04-01T18:39:50;6.80;99.90
51733;DHT22;39139;53.144;6.244;2023-04-01T18:44:56;6.80;99.90
51733;DHT22;39139;53.144;6.244;2023-04-01T18:51:09;8.10;99.90
51733;DHT22;39139;53.144;6.244;2023-04-01T18:56:01;6.80;99.90
51733;DHT22;39139;53.144;6.244;2023-04-01T18:58:35;6.70;99.90
51733;DHT22;39139;53.144;6.244;2023-04-01T19:04:52;6.60;99.90
51733;DHT22;39139;53.144;6.244;2023-04-01T19:07:46;6.70;99.90
51733;DHT22;39139;53.144;6.244;2023-04-01T19:10:39;6.60;99.90
51733;DHT22;39139;53.144;6.244;2023-04-01T19:21:20;6.50;99.90
51733;DHT22;39139;53.144;6.244;2023-04-01T19:35:43;6.40;99.90
51733;DHT22;39139;53.144;6.244;2023-04-01T19:38:30;6.40;99.90
51733;DHT22;39139;53.144;6.244;2023-04-01T19:41:44;6.40;99.90
51733;DHT22;39139;53.144;6.244;2023-04-01T19:52:47;6.30;99.90
51733;DHT22;39139;53.144;6.244;2023-04-01T20:00:52;6.20;99.90
51733;DHT22;39139;53.144;6.244;2023-04-01T20:06:21;6.20;99.90
51733;DHT22;39139;53.144;6.244;2023-04-01T20:16:18;6.20;99.90
51733;DHT22;39139;53.144;6.244;2023-04-01T20:18:54;6.10;99.90
51733;DHT22;39139;53.144;6.244;2023-04-01T20:21:40;6.00;99.90
51733;DHT22;39139;53.144;6.244;2023-04-01T20:24:29;6.00;99.90
51733;DHT22;39139;53.144;6.244;2023-04-01T20:27:15;6.30;99.90
51733;DHT22;39139;53.144;6.244;2023-04-01T20:41:02;5.90;99.90
51733;DHT22;39139;53.144;6.244;2023-04-01T20:43:30;5.90;99.90
51733;DHT22;39139;53.144;6.244;2023-04-01T20:51:21;5.80;99.90
51733;DHT22;39139;53.144;6.244;2023-04-01T20:54:20;5.70;99.90
51733;DHT22;39139;53.144;6.244;2023-04-01T20:57:06;5.70;99.90
51733;DHT22;39139;53.144;6.244;2023-04-01T21:07:55;5.70;99.90
51733;DHT22;39139;53.144;6.244;2023-04-01T21:15:58;5.70;99.90
51733;DHT22;39139;53.144;6.244;2023-04-01T21:24:04;5.70;99.90
51733;DHT22;39139;53.144;6.244;2023-04-01T21:30:03;5.60;99.90
51733;DHT22;39139;53.144;6.244;2023-04-01T21:38:17;5.60;99.90
51733;DHT22;39139;53.144;6.244;2023-04-01T22:06:17;5.40;99.90
51733;DHT22;39139;53.144;6.244;2023-04-01T22:09:02;5.40;99.90
51733;DHT22;39139;53.144;6.244;2023-04-01T22:14:15;5.40;99.90
51733;DHT22;39139;53.144;6.244;2023-04-01T22:16:56;5.30;99.90
51733;DHT22;39139;53.144;6.244;2023-04-01T22:19:37;5.30;99.90
51733;DHT22;39139;53.144;6.244;2023-04-01T22:23:20;5.30;99.90
51733;DHT22;39139;53.144;6.244;2023-04-01T22:25:31;5.30;99.90
51733;DHT22;39139;53.144;6.244;2023-04-01T22:28:27;5.30;99.90
51733;DHT22;39139;53.144;6.244;2023-04-01T22:30:51;5.30;99.90
51733;DHT22;39139;53.144;6.244;2023-04-01T22:50:02;5.20;99.90
51733;DHT22;39139;53.144;6.244;2023-04-01T22:52:35;5.20;99.90
51733;DHT22;39139;53.144;6.244;2023-04-01T22:55:10;5.20;99.90
51733;DHT22;39139;53.144;6.244;2023-04-01T22:57:45;5.20;99.90
51733;DHT22;39139;53.144;6.244;2023-04-01T23:05:34;5.00;99.90
51733;DHT22;39139;53.144;6.244;2023-04-01T23:10:56;4.90;99.90
51733;DHT22;39139;53.144;6.244;2023-04-01T23:13:27;3.60;99.90
51733;DHT22;39139;53.144;6.244;2023-04-01T23:15:55;4.80;99.90
51733;DHT22;39139;53.144;6.244;2023-04-01T23:18:45;4.80;99.90
51733;DHT22;39139;53.144;6.244;2023-04-01T23:26:38;4.70;99.90
51733;DHT22;39139;53.144;6.244;2023-04-01T23:29:13;4.70;99.90
51733;DHT22;39139;53.144;6.244;2023-04-01T23:31:41;4.60;99.90
51733;DHT22;39139;53.144;6.244;2023-04-01T23:36:44;4.60;99.90
51733;DHT22;39139;53.144;6.244;2023-04-01T23:39:30;4.60;99.90
51733;DHT22;39139;53.144;6.244;2023-04-01T23:42:03;4.50;99.90
51733;DHT22;39139;53.144;6.244;2023-04-01T23:44:31;4.50;99.90
51733;DHT22;39139;53.144;6.244;2023-04-01T23:46:59;4.50;99.90
51733;DHT22;39139;53.144;6.244;2023-04-01T23:49:37;4.40;99.90
51733;DHT22;39139;53.144;6.244;2023-04-01T23:52:10;4.40;99.90
51733;DHT22;39139;53.144;6.244;2023-04-01T23:55:47;4.40;99.90
